sensor_id;sensor_type;location;lat;lon;timestamp;pressure;altitude;pressure_sealevel;temperature;humidity
3590;BME280;1809;48.470;9.226;2022-10-16T00:01:45;96701.78;;;15.95;100.00
3590;BME280;1809;48.470;9.226;2022-10-16T00:04:11;96716.53;;;15.98;100.00
3590;BME280;1809;48.470;9.226;2022-10-16T00:06:37;96708.50;;;15.89;100.00
3590;BME280;1809;48.470;9.226;2022-10-16T00:09:02;96710.47;;;16.01;100.00
3590;BME280;1809;48.470;9.226;2022-10-16T00:11:33;96701.78;;;16.16;100.00
3590;BME280;1809;48.470;9.226;2022-10-16T00:14:03;96714.03;;;16.13;100.00
3590;BME280;1809;48.470;9.226;2022-10-16T00:16:29;96711.28;;;16.01;100.00
3590;BME280;1809;48.470;9.226;2022-10-16T00:18:55;96704.84;;;15.94;100.00
3590;BME280;1809;48.470;9.226;2022-10-16T00:21:24;96709.03;;;16.03;100.00
3590;BME280;1809;48.470;9.226;2022-10-16T00:23:55;96712.31;;;15.88;100.00
3590;BME280;1809;48.470;9.226;2022-10-16T00:26:22;96719.50;;;15.84;100.00
3590;BME280;1809;48.470;9.226;2022-10-16T00:28:48;96716.50;;;15.77;100.00
3590;BME280;1809;48.470;9.226;2022-10-16T00:31:15;96718.56;;;15.80;100.00
3590;BME280;1809;48.470;9.226;2022-10-16T00:33:41;96729.66;;;15.79;100.00
3590;BME280;1809;48.470;9.226;2022-10-16T00:36:12;96735.31;;;15.65;100.00
3590;BME280;1809;48.470;9.226;2022-10-16T00:38:39;96722.38;;;15.50;100.00
3590;BME280;1809;48.470;9.226;2022-10-16T00:41:06;96723.19;;;15.50;100.00
3590;BME280;1809;48.470;9.226;2022-10-16T00:46:07;96721.72;;;15.44;100.00
3590;BME280;1809;48.470;9.226;2022-10-16T00:48:34;96710.00;;;15.49;100.00
3590;BME280;1809;48.470;9.226;2022-10-16T00:51:00;96718.56;;;15.51;100.00
3590;BME280;1809;48.470;9.226;2022-10-16T00:53:27;96723.00;;;15.47;100.00
3590;BME280;1809;48.470;9.226;2022-10-16T00:55:53;96719.22;;;15.39;100.00
3590;BME280;1809;48.470;9.226;2022-10-16T00:58:19;96712.25;;;15.38;100.00
3590;BME280;1809;48.470;9.226;2022-10-16T01:00:45;96716.66;;;15.43;100.00
3590;BME280;1809;48.470;9.226;2022-10-16T01:03:28;96716.34;;;15.53;100.00
3590;BME280;1809;48.470;9.226;2022-10-16T01:06:14;96706.22;;;15.50;100.00
3590;BME280;1809;48.470;9.226;2022-10-16T01:14:45;96724.97;;;15.67;100.00
3590;BME280;1809;48.470;9.226;2022-10-16T01:17:30;96717.63;;;15.76;100.00
3590;BME280;1809;48.470;9.226;2022-10-16T01:20:04;96716.50;;;15.77;100.00
3590;BME280;1809;48.470;9.226;2022-10-16T01:25:25;96731.38;;;15.83;100.00
3590;BME280;1809;48.470;9.226;2022-10-16T01:27:55;96730.72;;;15.86;100.00
3590;BME280;1809;48.470;9.226;2022-10-16T01:30:29;96728.13;;;15.98;100.00
3590;BME280;1809;48.470;9.226;2022-10-16T01:33:03;96720.69;;;15.95;100.00
3590;BME280;1809;48.470;9.226;2022-10-16T01:35:36;96716.53;;;15.98;100.00
3590;BME280;1809;48.470;9.226;2022-10-16T01:38:08;96722.72;;;15.98;100.00
3590;BME280;1809;48.470;9.226;2022-10-16T01:40:42;96724.16;;;15.96;100.00
3590;BME280;1809;48.470;9.226;2022-10-16T01:43:16;96725.22;;;16.03;100.00
3590;BME280;1809;48.470;9.226;2022-10-16T01:45:44;96727.59;;;16.05;100.00
3590;BME280;1809;48.470;9.226;2022-10-16T01:48:17;96724.81;;;16.13;100.00
3590;BME280;1809;48.470;9.226;2022-10-16T01:50:47;96723.28;;;16.12;100.00
3590;BME280;1809;48.470;9.226;2022-10-16T01:53:16;96726.94;;;16.08;100.00
3590;BME280;1809;48.470;9.226;2022-10-16T01:55:46;96728.00;;;16.16;100.00
3590;BME280;1809;48.470;9.226;2022-10-16T01:58:13;96723.13;;;16.30;100.00
3590;BME280;1809;48.470;9.226;2022-10-16T02:00:43;96733.47;;;16.28;100.00
3590;BME280;1809;48.470;9.226;2022-10-16T02:03:11;96726.94;;;16.29;100.00
3590;BME280;1809;48.470;9.226;2022-10-16T02:08:08;96731.94;;;16.39;100.00
3590;BME280;1809;48.470;9.226;2022-10-16T02:10:38;96731.09;;;16.47;100.00
3590;BME280;1809;48.470;9.226;2022-10-16T02:13:09;96739.44;;;16.54;100.00
3590;BME280;1809;48.470;9.226;2022-10-16T02:15:36;96742.63;;;16.56;100.00
3590;BME280;1809;48.470;9.226;2022-10-16T02:18:03;96728.19;;;16.52;100.00
3590;BME280;1809;48.470;9.226;2022-10-16T02:20:34;96736.28;;;16.52;100.00
3590;BME280;1809;48.470;9.226;2022-10-16T02:23:02;96729.59;;;16.58;100.00
3590;BME280;1809;48.470;9.226;2022-10-16T02:25:35;96720.38;;;16.59;100.00
3590;BME280;1809;48.470;9.226;2022-10-16T02:28:10;96726.59;;;16.51;100.00
3590;BME280;1809;48.470;9.226;2022-10-16T02:31:03;96727.47;;;16.43;100.00
3590;BME280;1809;48.470;9.226;2022-10-16T02:33:31;96722.19;;;16.46;100.00
3590;BME280;1809;48.470;9.226;2022-10-16T02:35:59;96728.47;;;16.59;100.00
3590;BME280;1809;48.470;9.226;2022-10-16T02:38:25;96734.19;;;16.57;100.00
3590;BME280;1809;48.470;9.226;2022-10-16T02:40:51;96739.41;;;16.62;100.00
3590;BME280;1809;48.470;9.226;2022-10-16T02:43:17;96740.66;;;16.65;100.00
3590;BME280;1809;48.470;9.226;2022-10-16T02:45:43;96739.28;;;16.59;100.00
3590;BME280;1809;48.470;9.226;2022-10-16T02:48:09;96742.34;;;16.49;100.00
3590;BME280;1809;48.470;9.226;2022-10-16T02:50:34;96736.28;;;16.52;100.00
3590;BME280;1809;48.470;9.226;2022-10-16T02:53:00;96737.06;;;16.52;100.00
3590;BME280;1809;48.470;9.226;2022-10-16T02:55:25;96741.19;;;16.58;100.00
3590;BME280;1809;48.470;9.226;2022-10-16T02:57:51;96735.91;;;16.62;100.00
3590;BME280;1809;48.470;9.226;2022-10-16T03:00:17;96745.91;;;16.61;100.00
3590;BME280;1809;48.470;9.226;2022-10-16T03:02:43;96733.38;;;16.57;100.00
3590;BME280;1809;48.470;9.226;2022-10-16T03:05:09;96739.44;;;16.54;100.00
3590;BME280;1809;48.470;9.226;2022-10-16T03:07:35;96737.06;;;16.52;100.00
3590;BME280;1809;48.470;9.226;2022-10-16T03:10:00;96730.88;;;16.52;100.00
3590;BME280;1809;48.470;9.226;2022-10-16T03:12:27;96729.50;;;16.46;100.00
3590;BME280;1809;48.470;9.226;2022-10-16T03:14:52;96724.22;;;16.49;100.00
3590;BME280;1809;48.470;9.226;2022-10-16T03:17:18;96723.66;;;16.44;100.00
3590;BME280;1809;48.470;9.226;2022-10-16T03:19:43;96727.72;;;16.50;100.00
3590;BME280;1809;48.470;9.226;2022-10-16T03:22:08;96741.03;;;16.55;100.00
3590;BME280;1809;48.470;9.226;2022-10-16T03:24:34;96747.41;;;16.50;100.00
3590;BME280;1809;48.470;9.226;2022-10-16T03:26:59;96737.47;;;16.42;100.00
3590;BME280;1809;48.470;9.226;2022-10-16T03:29:25;96741.34;;;16.33;100.00
3590;BME280;1809;48.470;9.226;2022-10-16T03:31:51;96740.91;;;16.31;100.00
3590;BME280;1809;48.470;9.226;2022-10-16T03:34:16;96748.53;;;16.29;100.00
3590;BME280;1809;48.470;9.226;2022-10-16T03:36:42;96748.53;;;16.29;100.00
3590;BME280;1809;48.470;9.226;2022-10-16T03:39:07;96742.72;;;16.39;100.00
3590;BME280;1809;48.470;9.226;2022-10-16T03:41:32;96747.09;;;16.31;100.00
3590;BME280;1809;48.470;9.226;2022-10-16T03:43:58;96737.06;;;16.32;100.00
3590;BME280;1809;48.470;9.226;2022-10-16T03:46:23;96739.00;;;16.31;100.00
3590;BME280;1809;48.470;9.226;2022-10-16T03:48:48;96741.16;;;16.38;100.00
3590;BME280;1809;48.470;9.226;2022-10-16T03:51:14;96741.03;;;16.34;100.00
3590;BME280;1809;48.470;9.226;2022-10-16T03:53:39;96738.00;;;16.36;100.00
3590;BME280;1809;48.470;9.226;2022-10-16T03:56:05;96744.25;;;16.48;100.00
3590;BME280;1809;48.470;9.226;2022-10-16T03:58:30;96738.25;;;16.43;100.00
3590;BME280;1809;48.470;9.226;2022-10-16T04:00:55;96744.66;;;16.59;100.00
3590;BME280;1809;48.470;9.226;2022-10-16T04:03:23;96759.34;;;16.70;100.00
3590;BME280;1809;48.470;9.226;2022-10-16T04:05:57;96755.31;;;16.76;100.00
3590;BME280;1809;48.470;9.226;2022-10-16T04:08:22;96762.88;;;16.83;100.00
3590;BME280;1809;48.470;9.226;2022-10-16T04:10:48;96763.53;;;16.80;100.00
3590;BME280;1809;48.470;9.226;2022-10-16T04:13:13;96774.72;;;16.90;100.00
3590;BME280;1809;48.470;9.226;2022-10-16T04:15:39;96768.41;;;16.86;100.00
3590;BME280;1809;48.470;9.226;2022-10-16T04:18:04;96778.25;;;17.03;100.00
3590;BME280;1809;48.470;9.226;2022-10-16T04:20:30;96767.44;;;17.03;100.00
3590;BME280;1809;48.470;9.226;2022-10-16T04:22:55;96778.81;;;16.96;100.00
3590;BME280;1809;48.470;9.226;2022-10-16T04:25:21;96780.13;;;16.90;100.00
3590;BME280;1809;48.470;9.226;2022-10-16T04:27:47;96778.66;;;16.93;100.00
3590;BME280;1809;48.470;9.226;2022-10-16T04:30:13;96775.19;;;16.92;100.00
3590;BME280;1809;48.470;9.226;2022-10-16T04:32:38;96763.47;;;17.00;100.00
3590;BME280;1809;48.470;9.226;2022-10-16T04:35:04;96765.88;;;17.02;100.00
3590;BME280;1809;48.470;9.226;2022-10-16T04:37:29;96760.59;;;17.05;100.00
3590;BME280;1809;48.470;9.226;2022-10-16T04:39:55;96759.44;;;17.06;100.00
3590;BME280;1809;48.470;9.226;2022-10-16T04:42:20;96759.91;;;17.08;100.00
3590;BME280;1809;48.470;9.226;2022-10-16T04:44:46;96758.78;;;17.09;100.00
3590;BME280;1809;48.470;9.226;2022-10-16T04:47:11;96765.75;;;16.98;100.00
3590;BME280;1809;48.470;9.226;2022-10-16T04:49:37;96774.94;;;16.97;100.00
3590;BME280;1809;48.470;9.226;2022-10-16T04:52:02;96768.66;;;16.93;100.00
3590;BME280;1809;48.470;9.226;2022-10-16T04:54:27;96775.19;;;16.92;100.00
3590;BME280;1809;48.470;9.226;2022-10-16T04:56:53;96771.13;;;16.98;100.00
3590;BME280;1809;48.470;9.226;2022-10-16T04:59:19;96777.22;;;16.95;100.00
3590;BME280;1809;48.470;9.226;2022-10-16T05:01:45;96777.16;;;16.83;100.00
3590;BME280;1809;48.470;9.226;2022-10-16T05:04:11;96779.78;;;16.92;100.00
3590;BME280;1809;48.470;9.226;2022-10-16T05:06:37;96789.56;;;16.84;100.00
3590;BME280;1809;48.470;9.226;2022-10-16T05:09:04;96783.03;;;16.85;100.00
3590;BME280;1809;48.470;9.226;2022-10-16T05:11:30;96795.16;;;16.79;100.00
3590;BME280;1809;48.470;9.226;2022-10-16T05:13:55;96798.38;;;16.73;100.00
3590;BME280;1809;48.470;9.226;2022-10-16T05:16:20;96799.63;;;16.75;100.00
3590;BME280;1809;48.470;9.226;2022-10-16T05:18:46;96806.59;;;16.97;100.00
3590;BME280;1809;48.470;9.226;2022-10-16T05:21:11;96804.09;;;16.92;100.00
3590;BME280;1809;48.470;9.226;2022-10-16T05:23:36;96798.97;;;16.78;100.00
3590;BME280;1809;48.470;9.226;2022-10-16T05:26:02;96795.91;;;17.00;100.00
3590;BME280;1809;48.470;9.226;2022-10-16T05:28:29;96798.16;;;16.98;100.00
3590;BME280;1809;48.470;9.226;2022-10-16T05:30:56;96791.78;;;16.82;100.00
3590;BME280;1809;48.470;9.226;2022-10-16T05:33:24;96807.91;;;16.91;100.00
3590;BME280;1809;48.470;9.226;2022-10-16T05:35:52;96801.22;;;16.76;100.00
3590;BME280;1809;48.470;9.226;2022-10-16T05:38:21;96792.00;;;16.77;100.00
3590;BME280;1809;48.470;9.226;2022-10-16T05:40:53;96798.47;;;16.64;100.00
3590;BME280;1809;48.470;9.226;2022-10-16T05:43:19;96805.44;;;16.65;100.00
3590;BME280;1809;48.470;9.226;2022-10-16T05:45:45;96800.72;;;16.62;100.00
3590;BME280;1809;48.470;9.226;2022-10-16T05:48:18;96797.94;;;16.50;100.00
3590;BME280;1809;48.470;9.226;2022-10-16T05:50:43;96802.97;;;16.51;100.00
3590;BME280;1809;48.470;9.226;2022-10-16T05:53:09;96814.13;;;16.50;100.00
3590;BME280;1809;48.470;9.226;2022-10-16T05:55:34;96817.94;;;16.49;100.00
3590;BME280;1809;48.470;9.226;2022-10-16T05:58:03;96819.91;;;16.40;100.00
3590;BME280;1809;48.470;9.226;2022-10-16T06:00:32;96810.63;;;16.49;100.00
3590;BME280;1809;48.470;9.226;2022-10-16T06:02:57;96819.25;;;16.43;100.00
3590;BME280;1809;48.470;9.226;2022-10-16T06:05:23;96814.03;;;16.38;100.00
3590;BME280;1809;48.470;9.226;2022-10-16T06:07:48;96817.13;;;16.48;100.00
3590;BME280;1809;48.470;9.226;2022-10-16T06:10:14;96819.13;;;16.60;100.00
3590;BME280;1809;48.470;9.226;2022-10-16T06:12:40;96817.72;;;16.54;100.00
3590;BME280;1809;48.470;9.226;2022-10-16T06:15:06;96829.53;;;16.70;100.00
3590;BME280;1809;48.470;9.226;2022-10-16T06:17:32;96833.19;;;16.74;100.00
3590;BME280;1809;48.470;9.226;2022-10-16T06:19:58;96830.84;;;16.85;100.00
3590;BME280;1809;48.470;9.226;2022-10-16T06:22:24;96838.19;;;16.84;100.00
3590;BME280;1809;48.470;9.226;2022-10-16T06:24:53;96841.56;;;16.81;100.00
3590;BME280;1809;48.470;9.226;2022-10-16T06:27:19;96837.75;;;16.94;100.00
3590;BME280;1809;48.470;9.226;2022-10-16T06:29:45;96844.69;;;16.83;100.00
3590;BME280;1809;48.470;9.226;2022-10-16T06:32:10;96852.06;;;16.95;100.00
3590;BME280;1809;48.470;9.226;2022-10-16T06:34:36;96854.63;;;16.91;100.00
3590;BME280;1809;48.470;9.226;2022-10-16T06:37:02;96854.44;;;16.96;100.00
3590;BME280;1809;48.470;9.226;2022-10-16T06:39:28;96851.41;;;16.98;100.00
3590;BME280;1809;48.470;9.226;2022-10-16T06:41:56;96853.34;;;17.09;100.00
3590;BME280;1809;48.470;9.226;2022-10-16T06:44:22;96861.63;;;17.25;100.00
3590;BME280;1809;48.470;9.226;2022-10-16T06:46:50;96864.84;;;17.39;100.00
3590;BME280;1809;48.470;9.226;2022-10-16T06:49:19;96868.81;;;17.54;100.00
3590;BME280;1809;48.470;9.226;2022-10-16T06:51:51;96877.00;;;17.66;100.00
3590;BME280;1809;48.470;9.226;2022-10-16T06:54:22;96888.50;;;17.75;100.00
3590;BME280;1809;48.470;9.226;2022-10-16T06:56:51;96883.13;;;17.87;100.00
3590;BME280;1809;48.470;9.226;2022-10-16T06:59:23;96875.59;;;17.93;100.00
3590;BME280;1809;48.470;9.226;2022-10-16T07:01:48;96873.00;;;17.96;100.00
3590;BME280;1809;48.470;9.226;2022-10-16T07:04:14;96891.28;;;17.99;100.00
3590;BME280;1809;48.470;9.226;2022-10-16T07:06:45;96898.47;;;17.95;100.00
3590;BME280;1809;48.470;9.226;2022-10-16T07:09:14;96906.25;;;17.97;100.00
3590;BME280;1809;48.470;9.226;2022-10-16T07:11:40;96904.81;;;18.11;100.00
3590;BME280;1809;48.470;9.226;2022-10-16T07:14:15;96913.13;;;18.06;100.00
3590;BME280;1809;48.470;9.226;2022-10-16T07:16:41;96924.31;;;18.17;100.00
3590;BME280;1809;48.470;9.226;2022-10-16T07:19:14;96913.63;;;18.20;100.00
3590;BME280;1809;48.470;9.226;2022-10-16T07:21:41;96919.28;;;18.27;100.00
3590;BME280;1809;48.470;9.226;2022-10-16T07:24:11;96922.41;;;18.42;100.00
3590;BME280;1809;48.470;9.226;2022-10-16T07:26:38;96923.75;;;18.48;100.00
3590;BME280;1809;48.470;9.226;2022-10-16T07:29:06;96929.44;;;18.55;100.00
3590;BME280;1809;48.470;9.226;2022-10-16T07:31:33;96922.66;;;18.61;100.00
3590;BME280;1809;48.470;9.226;2022-10-16T07:33:59;96939.16;;;18.68;100.00
3590;BME280;1809;48.470;9.226;2022-10-16T07:36:25;96941.84;;;18.80;100.00
3590;BME280;1809;48.470;9.226;2022-10-16T07:38:51;96950.19;;;18.75;100.00
3590;BME280;1809;48.470;9.226;2022-10-16T07:41:19;96953.56;;;18.84;100.00
3590;BME280;1809;48.470;9.226;2022-10-16T07:43:49;96949.50;;;19.02;100.00
3590;BME280;1809;48.470;9.226;2022-10-16T07:46:20;96958.50;;;19.06;100.00
3590;BME280;1809;48.470;9.226;2022-10-16T07:48:46;96971.19;;;19.02;100.00
3590;BME280;1809;48.470;9.226;2022-10-16T07:51:18;96978.13;;;19.15;100.00
3590;BME280;1809;48.470;9.226;2022-10-16T07:53:44;96980.16;;;19.18;100.00
3590;BME280;1809;48.470;9.226;2022-10-16T07:56:10;96981.38;;;19.33;100.00
3590;BME280;1809;48.470;9.226;2022-10-16T07:58:35;96984.19;;;19.49;100.00
3590;BME280;1809;48.470;9.226;2022-10-16T08:01:09;96986.75;;;19.57;100.00
3590;BME280;1809;48.470;9.226;2022-10-16T08:03:34;96994.25;;;19.76;100.00
3590;BME280;1809;48.470;9.226;2022-10-16T08:06:03;96993.31;;;19.84;100.00
3590;BME280;1809;48.470;9.226;2022-10-16T08:08:33;97002.19;;;19.97;100.00
3590;BME280;1809;48.470;9.226;2022-10-16T08:10:59;96994.22;;;20.04;100.00
3590;BME280;1809;48.470;9.226;2022-10-16T08:13:24;96997.56;;;20.13;100.00
3590;BME280;1809;48.470;9.226;2022-10-16T08:15:51;96988.56;;;20.24;100.00
3590;BME280;1809;48.470;9.226;2022-10-16T08:18:18;96990.47;;;20.24;100.00
3590;BME280;1809;48.470;9.226;2022-10-16T08:20:44;96991.22;;;20.36;100.00
3590;BME280;1809;48.470;9.226;2022-10-16T08:23:11;96988.97;;;20.38;100.00
3590;BME280;1809;48.470;9.226;2022-10-16T08:25:37;96989.66;;;20.67;100.00
3590;BME280;1809;48.470;9.226;2022-10-16T08:28:07;97004.72;;;20.80;100.00
3590;BME280;1809;48.470;9.226;2022-10-16T08:30:33;97014.34;;;20.93;100.00
3590;BME280;1809;48.470;9.226;2022-10-16T08:33:00;97017.66;;;21.02;100.00
3590;BME280;1809;48.470;9.226;2022-10-16T08:35:26;97020.06;;;20.88;100.00
3590;BME280;1809;48.470;9.226;2022-10-16T08:37:52;97026.63;;;21.18;100.00
3590;BME280;1809;48.470;9.226;2022-10-16T08:40:22;97023.06;;;21.33;100.00
3590;BME280;1809;48.470;9.226;2022-10-16T08:45:48;97032.13;;;21.57;100.00
3590;BME280;1809;48.470;9.226;2022-10-16T08:50:51;97043.63;;;21.85;100.00
3590;BME280;1809;48.470;9.226;2022-10-16T08:53:22;97045.66;;;22.07;100.00
3590;BME280;1809;48.470;9.226;2022-10-16T08:55:50;97052.06;;;22.18;100.00
3590;BME280;1809;48.470;9.226;2022-10-16T08:58:20;97048.22;;;22.00;100.00
3590;BME280;1809;48.470;9.226;2022-10-16T09:00:53;97045.44;;;21.62;100.00
3590;BME280;1809;48.470;9.226;2022-10-16T09:12:10;97057.78;;;22.32;100.00
3590;BME280;1809;48.470;9.226;2022-10-16T09:23:45;97070.13;;;22.26;100.00
3590;BME280;1809;48.470;9.226;2022-10-16T09:25:48;97078.59;;;22.21;100.00
3590;BME280;1809;48.470;9.226;2022-10-16T09:28:16;97072.09;;;22.07;100.00
3590;BME280;1809;48.470;9.226;2022-10-16T09:30:43;97071.16;;;21.99;100.00
3590;BME280;1809;48.470;9.226;2022-10-16T09:33:10;97070.28;;;21.95;100.00
3590;BME280;1809;48.470;9.226;2022-10-16T09:35:44;97080.69;;;21.89;100.00
3590;BME280;1809;48.470;9.226;2022-10-16T09:38:33;97079.88;;;22.08;100.00
3590;BME280;1809;48.470;9.226;2022-10-16T09:41:19;97084.63;;;22.11;100.00
3590;BME280;1809;48.470;9.226;2022-10-16T09:43:53;97083.41;;;21.89;100.00
3590;BME280;1809;48.470;9.226;2022-10-16T09:46:31;97084.19;;;21.90;100.00
3590;BME280;1809;48.470;9.226;2022-10-16T09:49:02;97083.06;;;21.91;100.00
3590;BME280;1809;48.470;9.226;2022-10-16T09:51:36;97080.91;;;22.00;100.00
3590;BME280;1809;48.470;9.226;2022-10-16T09:54:13;97077.69;;;21.94;100.00
3590;BME280;1809;48.470;9.226;2022-10-16T09:56:39;97093.09;;;22.06;100.00
3590;BME280;1809;48.470;9.226;2022-10-16T09:59:23;97092.06;;;22.14;100.00
3590;BME280;1809;48.470;9.226;2022-10-16T10:01:53;97090.06;;;22.30;100.00
3590;BME280;1809;48.470;9.226;2022-10-16T10:04:21;97085.47;;;22.34;100.00
3590;BME280;1809;48.470;9.226;2022-10-16T10:06:53;97088.06;;;22.27;100.00
3590;BME280;1809;48.470;9.226;2022-10-16T10:11:56;97088.78;;;22.24;100.00
3590;BME280;1809;48.470;9.226;2022-10-16T10:14:37;97083.13;;;22.56;100.00
3590;BME280;1809;48.470;9.226;2022-10-16T10:19:40;97082.47;;;22.20;100.00
3590;BME280;1809;48.470;9.226;2022-10-16T10:22:32;97083.41;;;22.28;100.00
3590;BME280;1809;48.470;9.226;2022-10-16T10:38:34;97092.44;;;23.19;100.00
3590;BME280;1809;48.470;9.226;2022-10-16T10:41:24;97088.25;;;23.51;100.00
3590;BME280;1809;48.470;9.226;2022-10-16T10:46:57;97082.69;;;23.71;100.00
3590;BME280;1809;48.470;9.226;2022-10-16T10:49:54;97082.88;;;23.32;100.00
3590;BME280;1809;48.470;9.226;2022-10-16T10:58:22;97085.53;;;23.02;100.00
3590;BME280;1809;48.470;9.226;2022-10-16T11:00:57;97083.16;;;23.01;100.00
3590;BME280;1809;48.470;9.226;2022-10-16T11:06:20;97082.06;;;23.28;100.00
3590;BME280;1809;48.470;9.226;2022-10-16T11:11:37;97080.97;;;23.59;100.00
3590;BME280;1809;48.470;9.226;2022-10-16T11:14:22;97074.81;;;23.66;100.00
3590;BME280;1809;48.470;9.226;2022-10-16T11:16:56;97077.72;;;23.80;100.00
3590;BME280;1809;48.470;9.226;2022-10-16T11:19:41;97070.59;;;23.72;100.00
3590;BME280;1809;48.470;9.226;2022-10-16T11:22:23;97069.34;;;23.66;100.00
3590;BME280;1809;48.470;9.226;2022-10-16T11:25:01;97076.28;;;23.60;100.00
3590;BME280;1809;48.470;9.226;2022-10-16T11:27:39;97074.19;;;23.79;100.00
3590;BME280;1809;48.470;9.226;2022-10-16T11:30:26;97075.84;;;23.84;100.00
3590;BME280;1809;48.470;9.226;2022-10-16T11:40:47;97071.75;;;23.71;100.00
3590;BME280;1809;48.470;9.226;2022-10-16T11:43:22;97069.44;;;23.73;100.00
3590;BME280;1809;48.470;9.226;2022-10-16T11:45:53;97070.28;;;23.77;100.00
3590;BME280;1809;48.470;9.226;2022-10-16T11:48:43;97060.97;;;23.81;100.00
3590;BME280;1809;48.470;9.226;2022-10-16T11:51:17;97063.88;;;23.95;100.00
3590;BME280;1809;48.470;9.226;2022-10-16T11:53:51;97065.91;;;24.02;100.00
3590;BME280;1809;48.470;9.226;2022-10-16T11:56:20;97068.34;;;24.10;100.00
3590;BME280;1809;48.470;9.226;2022-10-16T11:58:56;97065.53;;;24.03;100.00
3590;BME280;1809;48.470;9.226;2022-10-16T12:01:36;97066.66;;;23.99;100.00
3590;BME280;1809;48.470;9.226;2022-10-16T12:04:12;97057.56;;;24.21;100.00
3590;BME280;1809;48.470;9.226;2022-10-16T12:06:47;97066.25;;;24.30;100.00
3590;BME280;1809;48.470;9.226;2022-10-16T12:09:36;97062.78;;;24.33;100.00
3590;BME280;1809;48.470;9.226;2022-10-16T12:12:02;97059.91;;;24.19;100.00
3590;BME280;1809;48.470;9.226;2022-10-16T12:14:37;97064.41;;;24.38;100.00
3590;BME280;1809;48.470;9.226;2022-10-16T12:17:27;97063.13;;;24.28;100.00
3590;BME280;1809;48.470;9.226;2022-10-16T12:23:03;97064.91;;;24.50;100.00
3590;BME280;1809;48.470;9.226;2022-10-16T12:28:29;97059.75;;;24.42;100.00
3590;BME280;1809;48.470;9.226;2022-10-16T12:30:56;97058.53;;;24.39;100.00
3590;BME280;1809;48.470;9.226;2022-10-16T12:33:28;97059.16;;;24.22;100.00
3590;BME280;1809;48.470;9.226;2022-10-16T12:35:54;97056.97;;;24.38;100.00
3590;BME280;1809;48.470;9.226;2022-10-16T12:38:25;97062.69;;;24.26;100.00
3590;BME280;1809;48.470;9.226;2022-10-16T12:41:04;97064.75;;;24.36;100.00
3590;BME280;1809;48.470;9.226;2022-10-16T12:43:37;97061.00;;;24.51;100.00
3590;BME280;1809;48.470;9.226;2022-10-16T12:48:34;97060.13;;;24.40;100.00
3590;BME280;1809;48.470;9.226;2022-10-16T12:51:23;97065.66;;;24.47;100.00
3590;BME280;1809;48.470;9.226;2022-10-16T12:53:59;97065.59;;;24.40;100.00
3590;BME280;1809;48.470;9.226;2022-10-16T12:57:07;97069.47;;;24.39;100.00
3590;BME280;1809;48.470;9.226;2022-10-16T13:00:03;97058.81;;;24.27;100.00
3590;BME280;1809;48.470;9.226;2022-10-16T13:02:49;97063.34;;;24.49;100.00
3590;BME280;1809;48.470;9.226;2022-10-16T13:05:56;97061.00;;;24.51;100.00
3590;BME280;1809;48.470;9.226;2022-10-16T13:22:19;97072.59;;;24.38;100.00
3590;BME280;1809;48.470;9.226;2022-10-16T13:27:35;97085.84;;;24.36;100.00
3590;BME280;1809;48.470;9.226;2022-10-16T13:30:16;97078.41;;;24.33;100.00
3590;BME280;1809;48.470;9.226;2022-10-16T13:33:13;97067.16;;;24.41;100.00
3590;BME280;1809;48.470;9.226;2022-10-16T13:35:37;97066.41;;;24.44;100.00
3590;BME280;1809;48.470;9.226;2022-10-16T13:38:26;97074.69;;;24.51;100.00
3590;BME280;1809;48.470;9.226;2022-10-16T13:40:56;97072.22;;;24.39;100.00
3590;BME280;1809;48.470;9.226;2022-10-16T13:43:26;97074.63;;;24.11;100.00
3590;BME280;1809;48.470;9.226;2022-10-16T13:46:13;97069.09;;;24.07;100.00
3590;BME280;1809;48.470;9.226;2022-10-16T13:48:40;97069.00;;;24.30;100.00
3590;BME280;1809;48.470;9.226;2022-10-16T13:51:14;97066.75;;;24.39;100.00
3590;BME280;1809;48.470;9.226;2022-10-16T13:53:40;97069.81;;;24.34;100.00
3590;BME280;1809;48.470;9.226;2022-10-16T13:56:17;97066.19;;;24.23;100.00
3590;BME280;1809;48.470;9.226;2022-10-16T13:58:43;97065.25;;;24.45;100.00
3590;BME280;1809;48.470;9.226;2022-10-16T14:01:27;97069.63;;;24.17;100.00
3590;BME280;1809;48.470;9.226;2022-10-16T14:04:01;97068.72;;;24.42;100.00
3590;BME280;1809;48.470;9.226;2022-10-16T14:06:27;97071.06;;;24.40;100.00
3590;BME280;1809;48.470;9.226;2022-10-16T14:08:59;97071.84;;;24.41;100.00
3590;BME280;1809;48.470;9.226;2022-10-16T14:11:26;97074.75;;;24.58;100.00
3590;BME280;1809;48.470;9.226;2022-10-16T14:13:52;97067.91;;;24.38;100.00
3590;BME280;1809;48.470;9.226;2022-10-16T14:16:23;97066.13;;;24.53;100.00
3590;BME280;1809;48.470;9.226;2022-10-16T14:18:59;97073.09;;;24.50;100.00
3590;BME280;1809;48.470;9.226;2022-10-16T14:21:26;97069.44;;;24.36;100.00
3590;BME280;1809;48.470;9.226;2022-10-16T14:23:52;97071.06;;;24.40;100.00
3590;BME280;1809;48.470;9.226;2022-10-16T14:26:20;97066.41;;;24.44;100.00
3590;BME280;1809;48.470;9.226;2022-10-16T14:28:48;97065.91;;;24.35;100.00
3590;BME280;1809;48.470;9.226;2022-10-16T14:31:28;97071.72;;;24.30;100.00
3590;BME280;1809;48.470;9.226;2022-10-16T14:33:59;97073.94;;;24.18;100.00
3590;BME280;1809;48.470;9.226;2022-10-16T14:36:27;97071.56;;;24.16;100.00
3590;BME280;1809;48.470;9.226;2022-10-16T14:39:14;97075.00;;;24.43;100.00
3590;BME280;1809;48.470;9.226;2022-10-16T14:41:48;97069.53;;;24.43;100.00
3590;BME280;1809;48.470;9.226;2022-10-16T14:44:16;97070.28;;;24.40;100.00
3590;BME280;1809;48.470;9.226;2022-10-16T14:46:43;97071.06;;;24.40;100.00
3590;BME280;1809;48.470;9.226;2022-10-16T14:51:36;97078.56;;;24.14;100.00
3590;BME280;1809;48.470;9.226;2022-10-16T14:54:01;97074.44;;;23.97;100.00
3590;BME280;1809;48.470;9.226;2022-10-16T14:56:34;97088.59;;;24.06;100.00
3590;BME280;1809;48.470;9.226;2022-10-16T14:59:10;97090.50;;;24.02;100.00
3590;BME280;1809;48.470;9.226;2022-10-16T15:01:38;97094.56;;;23.82;100.00
3590;BME280;1809;48.470;9.226;2022-10-16T15:04:03;97097.63;;;23.80;100.00
3590;BME280;1809;48.470;9.226;2022-10-16T15:06:29;97100.78;;;23.82;100.00
3590;BME280;1809;48.470;9.226;2022-10-16T15:08:54;97105.78;;;23.77;100.00
3590;BME280;1809;48.470;9.226;2022-10-16T15:11:19;97102.13;;;23.66;100.00